sensor_id;sensor_type;location;lat;lon;timestamp;P1;durP1;ratioP1;P2;durP2;ratioP2
1523;SDS011;755;53.658;10.118;2023-02-11T00:02:50;59.38;;;24.00;;
1523;SDS011;755;53.658;10.118;2023-02-11T00:12:52;52.30;;;21.02;;
1523;SDS011;755;53.658;10.118;2023-02-11T00:22:56;63.97;;;21.88;;
1523;SDS011;755;53.658;10.118;2023-02-11T00:32:58;52.65;;;22.85;;
1523;SDS011;755;53.658;10.118;2023-02-11T00:43:01;52.58;;;20.98;;
1523;SDS011;755;53.658;10.118;2023-02-11T00:53:03;76.13;;;22.13;;
1523;SDS011;755;53.658;10.118;2023-02-11T01:03:07;55.78;;;21.42;;
1523;SDS011;755;53.658;10.118;2023-02-11T01:13:09;58.70;;;20.70;;
1523;SDS011;755;53.658;10.118;2023-02-11T01:23:13;63.17;;;23.48;;
1523;SDS011;755;53.658;10.118;2023-02-11T01:33:15;73.05;;;23.20;;
1523;SDS011;755;53.658;10.118;2023-02-11T01:43:19;74.00;;;22.02;;
1523;SDS011;755;53.658;10.118;2023-02-11T01:53:21;60.75;;;22.42;;
1523;SDS011;755;53.658;10.118;2023-02-11T02:03:43;53.80;;;22.30;;
1523;SDS011;755;53.658;10.118;2023-02-11T02:13:49;56.97;;;23.20;;
1523;SDS011;755;53.658;10.118;2023-02-11T02:24:00;69.72;;;23.63;;
1523;SDS011;755;53.658;10.118;2023-02-11T02:34:25;58.17;;;22.75;;
1523;SDS011;755;53.658;10.118;2023-02-11T02:44:34;65.57;;;25.60;;
1523;SDS011;755;53.658;10.118;2023-02-11T02:54:45;63.95;;;23.95;;
1523;SDS011;755;53.658;10.118;2023-02-11T03:05:02;63.08;;;23.80;;
1523;SDS011;755;53.658;10.118;2023-02-11T03:15:11;60.22;;;21.08;;
1523;SDS011;755;53.658;10.118;2023-02-11T03:25:15;53.85;;;20.67;;
1523;SDS011;755;53.658;10.118;2023-02-11T03:35:20;69.35;;;20.40;;
1523;SDS011;755;53.658;10.118;2023-02-11T03:45:24;57.97;;;22.17;;
1523;SDS011;755;53.658;10.118;2023-02-11T03:55:29;71.13;;;21.55;;
1523;SDS011;755;53.658;10.118;2023-02-11T04:05:35;59.97;;;20.07;;
1523;SDS011;755;53.658;10.118;2023-02-11T04:15:38;58.50;;;20.38;;
1523;SDS011;755;53.658;10.118;2023-02-11T04:25:41;56.92;;;18.00;;
1523;SDS011;755;53.658;10.118;2023-02-11T04:35:44;58.13;;;18.92;;
1523;SDS011;755;53.658;10.118;2023-02-11T04:45:46;67.18;;;20.10;;
1523;SDS011;755;53.658;10.118;2023-02-11T04:55:49;66.00;;;19.52;;
1523;SDS011;755;53.658;10.118;2023-02-11T05:05:52;61.70;;;18.17;;
1523;SDS011;755;53.658;10.118;2023-02-11T05:15:56;45.47;;;15.90;;
1523;SDS011;755;53.658;10.118;2023-02-11T05:25:58;53.50;;;17.13;;
1523;SDS011;755;53.658;10.118;2023-02-11T05:36:03;57.95;;;17.15;;
1523;SDS011;755;53.658;10.118;2023-02-11T05:46:07;49.83;;;15.67;;
1523;SDS011;755;53.658;10.118;2023-02-11T05:56:10;43.13;;;14.82;;
1523;SDS011;755;53.658;10.118;2023-02-11T06:06:13;46.08;;;14.90;;
1523;SDS011;755;53.658;10.118;2023-02-11T06:16:17;45.70;;;14.43;;
1523;SDS011;755;53.658;10.118;2023-02-11T06:26:21;41.92;;;14.15;;
1523;SDS011;755;53.658;10.118;2023-02-11T06:36:25;35.03;;;13.32;;
1523;SDS011;755;53.658;10.118;2023-02-11T06:46:27;37.53;;;13.73;;
1523;SDS011;755;53.658;10.118;2023-02-11T06:56:31;39.05;;;14.50;;
1523;SDS011;755;53.658;10.118;2023-02-11T07:06:34;31.55;;;12.98;;
1523;SDS011;755;53.658;10.118;2023-02-11T07:16:38;42.45;;;13.88;;
1523;SDS011;755;53.658;10.118;2023-02-11T07:26:40;30.92;;;14.10;;
1523;SDS011;755;53.658;10.118;2023-02-11T07:36:43;45.33;;;14.55;;
1523;SDS011;755;53.658;10.118;2023-02-11T07:46:45;38.97;;;14.38;;
1523;SDS011;755;53.658;10.118;2023-02-11T07:56:49;37.80;;;15.70;;
1523;SDS011;755;53.658;10.118;2023-02-11T08:06:51;50.35;;;16.67;;
1523;SDS011;755;53.658;10.118;2023-02-11T08:16:57;43.35;;;17.58;;
1523;SDS011;755;53.658;10.118;2023-02-11T08:26:59;41.88;;;16.25;;
1523;SDS011;755;53.658;10.118;2023-02-11T08:37:04;42.03;;;16.08;;
1523;SDS011;755;53.658;10.118;2023-02-11T08:47:06;54.50;;;19.17;;
1523;SDS011;755;53.658;10.118;2023-02-11T08:57:09;45.08;;;16.00;;
1523;SDS011;755;53.658;10.118;2023-02-11T09:07:11;54.70;;;16.48;;
1523;SDS011;755;53.658;10.118;2023-02-11T09:17:14;41.45;;;14.68;;
1523;SDS011;755;53.658;10.118;2023-02-11T09:27:16;41.83;;;13.38;;
1523;SDS011;755;53.658;10.118;2023-02-11T09:37:20;38.22;;;14.70;;
1523;SDS011;755;53.658;10.118;2023-02-11T09:47:23;49.15;;;14.35;;
1523;SDS011;755;53.658;10.118;2023-02-11T09:57:30;51.38;;;12.63;;
1523;SDS011;755;53.658;10.118;2023-02-11T10:07:35;34.70;;;10.47;;
1523;SDS011;755;53.658;10.118;2023-02-11T10:18:07;49.57;;;11.83;;
1523;SDS011;755;53.658;10.118;2023-02-11T10:28:18;24.90;;;9.67;;
1523;SDS011;755;53.658;10.118;2023-02-11T10:38:25;43.50;;;10.27;;
1523;SDS011;755;53.658;10.118;2023-02-11T10:48:36;30.85;;;8.20;;
1523;SDS011;755;53.658;10.118;2023-02-11T10:58:44;29.45;;;7.65;;
1523;SDS011;755;53.658;10.118;2023-02-11T11:08:54;35.40;;;8.00;;
1523;SDS011;755;53.658;10.118;2023-02-11T11:29:25;29.83;;;7.10;;
1523;SDS011;755;53.658;10.118;2023-02-11T11:39:34;30.92;;;5.82;;
1523;SDS011;755;53.658;10.118;2023-02-11T11:49:38;26.92;;;5.22;;
1523;SDS011;755;53.658;10.118;2023-02-11T11:59:46;25.55;;;6.30;;
1523;SDS011;755;53.658;10.118;2023-02-11T12:09:54;18.88;;;4.60;;
1523;SDS011;755;53.658;10.118;2023-02-11T12:20:22;17.90;;;4.15;;
1523;SDS011;755;53.658;10.118;2023-02-11T12:30:42;20.60;;;4.75;;
1523;SDS011;755;53.658;10.118;2023-02-11T12:41:18;25.92;;;5.35;;
1523;SDS011;755;53.658;10.118;2023-02-11T12:51:53;24.90;;;5.03;;
1523;SDS011;755;53.658;10.118;2023-02-11T13:02:14;24.38;;;4.47;;
1523;SDS011;755;53.658;10.118;2023-02-11T13:12:24;31.98;;;5.57;;
1523;SDS011;755;53.658;10.118;2023-02-11T13:22:47;22.25;;;4.68;;
1523;SDS011;755;53.658;10.118;2023-02-11T13:43:23;25.17;;;5.45;;
1523;SDS011;755;53.658;10.118;2023-02-11T13:53:28;38.20;;;4.97;;
1523;SDS011;755;53.658;10.118;2023-02-11T14:03:33;27.67;;;3.47;;
1523;SDS011;755;53.658;10.118;2023-02-11T14:14:02;17.90;;;3.95;;
1523;SDS011;755;53.658;10.118;2023-02-11T14:34:50;26.08;;;4.15;;
1523;SDS011;755;53.658;10.118;2023-02-11T14:45:02;24.75;;;5.30;;
1523;SDS011;755;53.658;10.118;2023-02-11T14:55:12;26.65;;;5.35;;
1523;SDS011;755;53.658;10.118;2023-02-11T15:05:24;40.25;;;6.10;;
1523;SDS011;755;53.658;10.118;2023-02-11T15:15:29;30.43;;;6.20;;
1523;SDS011;755;53.658;10.118;2023-02-11T15:25:42;29.48;;;6.40;;
1523;SDS011;755;53.658;10.118;2023-02-11T15:35:52;36.85;;;7.90;;
1523;SDS011;755;53.658;10.118;2023-02-11T15:45:57;30.33;;;6.65;;
1523;SDS011;755;53.658;10.118;2023-02-11T15:56:02;25.17;;;7.07;;
1523;SDS011;755;53.658;10.118;2023-02-11T16:06:17;35.45;;;8.93;;
1523;SDS011;755;53.658;10.118;2023-02-11T16:16:21;49.58;;;13.75;;
1523;SDS011;755;53.658;10.118;2023-02-11T16:26:28;38.20;;;10.85;;
1523;SDS011;755;53.658;10.118;2023-02-11T16:36:33;45.05;;;11.77;;
1523;SDS011;755;53.658;10.118;2023-02-11T16:46:37;41.90;;;9.60;;
1523;SDS011;755;53.658;10.118;2023-02-11T16:56:40;36.03;;;10.38;;
1523;SDS011;755;53.658;10.118;2023-02-11T17:06:44;35.65;;;9.43;;
1523;SDS011;755;53.658;10.118;2023-02-11T17:16:47;43.58;;;10.73;;
1523;SDS011;755;53.658;10.118;2023-02-11T17:26:51;48.45;;;12.63;;
1523;SDS011;755;53.658;10.118;2023-02-11T17:36:54;54.08;;;15.25;;
1523;SDS011;755;53.658;10.118;2023-02-11T17:46:58;58.65;;;14.27;;
1523;SDS011;755;53.658;10.118;2023-02-11T17:57:00;77.40;;;16.55;;
1523;SDS011;755;53.658;10.118;2023-02-11T18:07:04;55.55;;;15.23;;
1523;SDS011;755;53.658;10.118;2023-02-11T18:17:06;70.85;;;16.67;;
1523;SDS011;755;53.658;10.118;2023-02-11T18:27:11;61.67;;;15.85;;
1523;SDS011;755;53.658;10.118;2023-02-11T18:37:13;46.53;;;14.73;;
1523;SDS011;755;53.658;10.118;2023-02-11T18:47:18;72.20;;;18.83;;
1523;SDS011;755;53.658;10.118;2023-02-11T18:57:21;74.97;;;19.05;;
1523;SDS011;755;53.658;10.118;2023-02-11T19:07:25;70.38;;;17.90;;
1523;SDS011;755;53.658;10.118;2023-02-11T19:17:27;65.25;;;15.85;;
1523;SDS011;755;53.658;10.118;2023-02-11T19:27:31;56.15;;;13.13;;
1523;SDS011;755;53.658;10.118;2023-02-11T19:37:33;46.70;;;13.63;;
1523;SDS011;755;53.658;10.118;2023-02-11T19:47:37;41.72;;;12.27;;
1523;SDS011;755;53.658;10.118;2023-02-11T19:57:39;55.80;;;12.45;;
1523;SDS011;755;53.658;10.118;2023-02-11T20:07:43;47.50;;;13.20;;
1523;SDS011;755;53.658;10.118;2023-02-11T20:17:45;46.55;;;13.93;;
1523;SDS011;755;53.658;10.118;2023-02-11T20:27:48;45.58;;;14.48;;
1523;SDS011;755;53.658;10.118;2023-02-11T20:37:51;69.13;;;16.42;;
1523;SDS011;755;53.658;10.118;2023-02-11T20:47:55;66.70;;;15.63;;
1523;SDS011;755;53.658;10.118;2023-02-11T20:57:57;76.63;;;17.02;;
1523;SDS011;755;53.658;10.118;2023-02-11T21:08:00;66.88;;;16.95;;
1523;SDS011;755;53.658;10.118;2023-02-11T21:18:03;77.18;;;18.25;;
1523;SDS011;755;53.658;10.118;2023-02-11T21:28:07;98.55;;;17.60;;
1523;SDS011;755;53.658;10.118;2023-02-11T21:38:09;68.35;;;16.35;;
1523;SDS011;755;53.658;10.118;2023-02-11T21:48:13;92.32;;;17.85;;
1523;SDS011;755;53.658;10.118;2023-02-11T21:58:17;75.05;;;17.52;;
1523;SDS011;755;53.658;10.118;2023-02-11T22:08:20;80.18;;;17.38;;
1523;SDS011;755;53.658;10.118;2023-02-11T22:18:23;65.00;;;16.35;;
1523;SDS011;755;53.658;10.118;2023-02-11T22:28:27;78.38;;;16.25;;
1523;SDS011;755;53.658;10.118;2023-02-11T22:38:30;64.95;;;15.05;;
1523;SDS011;755;53.658;10.118;2023-02-11T22:48:35;55.92;;;15.65;;
1523;SDS011;755;53.658;10.118;2023-02-11T22:58:38;54.40;;;15.18;;
1523;SDS011;755;53.658;10.118;2023-02-11T23:08:42;58.58;;;13.40;;
1523;SDS011;755;53.658;10.118;2023-02-11T23:18:45;59.25;;;14.38;;
1523;SDS011;755;53.658;10.118;2023-02-11T23:28:49;57.70;;;16.00;;
1523;SDS011;755;53.658;10.118;2023-02-11T23:38:52;74.70;;;17.70;;
1523;SDS011;755;53.658;10.118;2023-02-11T23:48:55;56.58;;;17.88;;
1523;SDS011;755;53.658;10.118;2023-02-11T23:58:58;44.13;;;14.48;;
